createdAt,value
2019-03-03T00:00:12.004Z,993.80
2019-03-03T00:01:11.981Z,993.85
2019-03-03T00:02:11.963Z,993.84
2019-03-03T00:03:11.953Z,993.82
2019-03-03T00:04:11.921Z,993.79
2019-03-03T00:05:11.896Z,993.77
2019-03-03T00:06:11.870Z,993.76
2019-03-03T00:07:11.857Z,993.74
2019-03-03T00:08:11.835Z,993.79
2019-03-03T00:09:11.806Z,993.71
2019-03-03T00:10:11.789Z,993.69
2019-03-03T00:11:11.766Z,993.69
2019-03-03T00:12:11.748Z,993.72
2019-03-03T00:13:11.725Z,993.69
2019-03-03T00:14:11.696Z,993.66
2019-03-03T00:15:11.678Z,993.55
2019-03-03T00:16:11.660Z,993.58
2019-03-03T00:17:11.634Z,993.56
2019-03-03T00:18:11.612Z,993.58
2019-03-03T00:19:11.596Z,993.51
2019-03-03T00:20:11.582Z,993.56
2019-03-03T00:21:11.548Z,993.61
2019-03-03T00:22:11.531Z,993.61
2019-03-03T00:23:11.511Z,993.65
2019-03-03T00:24:11.484Z,993.70
2019-03-03T00:25:11.466Z,993.68
2019-03-03T00:26:11.439Z,993.73
2019-03-03T00:27:11.460Z,993.71
2019-03-03T00:28:11.395Z,993.70
2019-03-03T00:29:11.379Z,993.74
2019-03-03T00:30:11.353Z,993.72
2019-03-03T00:31:11.331Z,993.74
2019-03-03T00:32:11.315Z,993.70
2019-03-03T00:33:11.289Z,993.79
2019-03-03T00:34:11.267Z,993.80
2019-03-03T00:35:11.246Z,993.82
2019-03-03T00:36:11.226Z,993.82
2019-03-03T00:37:11.200Z,993.84
2019-03-03T00:38:11.177Z,993.81
2019-03-03T00:39:11.158Z,993.86
2019-03-03T00:40:11.139Z,993.85
2019-03-03T00:41:11.113Z,993.92
2019-03-03T00:42:11.094Z,993.89
2019-03-03T00:43:11.078Z,993.92
2019-03-03T00:44:11.052Z,993.87
2019-03-03T00:45:11.027Z,993.89
2019-03-03T00:46:11.008Z,993.86
2019-03-03T00:47:10.989Z,993.86
2019-03-03T00:48:10.970Z,993.84
2019-03-03T00:49:10.967Z,993.88
2019-03-03T00:50:10.926Z,993.84
2019-03-03T00:51:10.907Z,993.83
2019-03-03T00:52:10.881Z,993.84
2019-03-03T00:53:10.856Z,993.81
2019-03-03T00:54:10.835Z,993.80
2019-03-03T00:55:10.814Z,993.83
2019-03-03T00:56:10.792Z,993.77
2019-03-03T00:57:10.770Z,993.73
2019-03-03T00:58:10.747Z,993.75
2019-03-03T00:59:10.731Z,993.73
2019-03-03T01:00:10.708Z,993.73
2019-03-03T01:01:10.687Z,993.71
2019-03-03T01:02:10.667Z,993.73
2019-03-03T01:03:10.645Z,993.72
2019-03-03T01:04:10.622Z,993.74
2019-03-03T01:05:10.596Z,993.69
2019-03-03T01:06:10.579Z,993.66
2019-03-03T01:07:10.557Z,993.65
2019-03-03T01:08:10.538Z,993.67
2019-03-03T01:09:10.509Z,993.68
2019-03-03T01:10:10.486Z,993.69
2019-03-03T01:11:10.470Z,993.74
2019-03-03T01:12:10.446Z,993.75
2019-03-03T01:13:10.430Z,993.74
2019-03-03T01:14:10.407Z,993.73
2019-03-03T01:15:10.379Z,993.76
2019-03-03T01:16:10.362Z,993.73
2019-03-03T01:17:10.334Z,993.74
2019-03-03T01:18:10.321Z,993.76
2019-03-03T01:19:10.296Z,993.77
2019-03-03T01:20:10.270Z,993.71
2019-03-03T01:21:10.256Z,993.71
2019-03-03T01:22:10.228Z,993.73
2019-03-03T01:23:10.206Z,993.66
2019-03-03T01:24:10.190Z,993.68
2019-03-03T01:25:10.164Z,993.58
2019-03-03T01:26:10.148Z,993.69
2019-03-03T01:27:10.119Z,993.64
2019-03-03T01:28:10.100Z,993.63
2019-03-03T01:29:10.078Z,993.61
2019-03-03T01:30:10.059Z,993.60
2019-03-03T01:31:10.036Z,993.57
2019-03-03T01:32:10.018Z,993.61
2019-03-03T01:33:09.990Z,993.55
2019-03-03T01:34:09.971Z,993.53
2019-03-03T01:35:09.948Z,993.57
2019-03-03T01:36:09.950Z,993.53
2019-03-03T01:37:09.923Z,993.57
2019-03-03T01:38:09.884Z,993.55
2019-03-03T01:39:09.862Z,993.51
2019-03-03T01:40:09.839Z,993.55
2019-03-03T01:41:09.817Z,993.52
2019-03-03T01:42:09.794Z,993.55
2019-03-03T01:43:09.778Z,993.56
2019-03-03T01:44:09.755Z,993.60
2019-03-03T01:45:09.730Z,993.60
2019-03-03T01:46:09.714Z,993.64
2019-03-03T01:47:09.690Z,993.59
2019-03-03T01:48:09.666Z,993.51
2019-03-03T01:49:09.643Z,993.51
2019-03-03T01:50:09.625Z,993.51
2019-03-03T01:51:09.602Z,993.48
2019-03-03T01:52:09.579Z,993.49
2019-03-03T01:53:09.560Z,993.46
2019-03-03T01:54:09.538Z,993.48
2019-03-03T01:55:09.515Z,993.46
2019-03-03T01:56:09.494Z,993.46
2019-03-03T01:57:09.476Z,993.43
2019-03-03T01:58:09.451Z,993.43
2019-03-03T01:59:09.430Z,993.41
2019-03-03T02:00:09.413Z,993.37
2019-03-03T02:01:09.385Z,993.37
2019-03-03T02:02:09.364Z,993.38
2019-03-03T02:03:09.342Z,993.34
2019-03-03T02:04:09.332Z,993.32
2019-03-03T02:05:09.320Z,993.33
2019-03-03T02:06:09.278Z,993.32
2019-03-03T02:07:09.284Z,993.33
2019-03-03T02:08:09.269Z,993.34
2019-03-03T02:09:09.236Z,993.33
2019-03-03T02:10:09.208Z,993.33
2019-03-03T02:11:09.187Z,993.31
2019-03-03T02:12:09.168Z,993.32
2019-03-03T02:13:09.152Z,993.31
2019-03-03T02:14:09.142Z,993.31
2019-03-03T02:15:09.089Z,993.28
2019-03-03T02:16:09.071Z,993.28
2019-03-03T02:17:09.036Z,993.27
2019-03-03T02:18:09.018Z,993.29
2019-03-03T02:19:08.995Z,993.25
2019-03-03T02:20:08.980Z,993.27
2019-03-03T02:21:08.953Z,993.30
2019-03-03T02:22:08.932Z,993.26
2019-03-03T02:23:08.909Z,993.23
2019-03-03T02:24:08.887Z,993.20
2019-03-03T02:25:08.865Z,993.24
2019-03-03T02:26:08.845Z,993.19
2019-03-03T02:27:08.819Z,993.23
2019-03-03T02:28:08.807Z,993.22
2019-03-03T02:29:08.778Z,993.17
2019-03-03T02:30:08.763Z,993.15
2019-03-03T02:31:08.750Z,993.21
2019-03-03T02:32:08.714Z,993.14
2019-03-03T02:33:08.693Z,993.07
2019-03-03T02:34:08.677Z,993.11
2019-03-03T02:35:08.657Z,993.12
2019-03-03T02:36:08.634Z,993.10
2019-03-03T02:37:08.609Z,993.08
2019-03-03T02:38:08.597Z,993.07
2019-03-03T02:39:08.566Z,993.04
2019-03-03T02:40:08.542Z,992.97
2019-03-03T02:41:08.526Z,992.97
2019-03-03T02:42:08.505Z,992.98
2019-03-03T02:43:08.480Z,992.97
2019-03-03T02:44:08.458Z,992.97
2019-03-03T02:45:08.441Z,992.97
2019-03-03T02:46:08.423Z,992.93
2019-03-03T02:47:08.390Z,992.84
2019-03-03T02:48:08.373Z,992.87
2019-03-03T02:49:08.349Z,992.88
2019-03-03T02:50:08.334Z,992.81
2019-03-03T02:51:08.304Z,992.77
2019-03-03T02:52:08.291Z,992.80
2019-03-03T02:53:08.271Z,992.75
2019-03-03T02:54:08.246Z,992.73
2019-03-03T02:55:08.225Z,992.82
2019-03-03T02:56:08.202Z,992.81
2019-03-03T02:57:08.176Z,992.89
2019-03-03T02:58:08.153Z,992.89
2019-03-03T02:59:08.133Z,992.87
2019-03-03T03:00:08.108Z,992.91
2019-03-03T03:01:08.098Z,992.95
2019-03-03T03:02:08.065Z,992.89
2019-03-03T03:03:08.044Z,992.92
2019-03-03T03:04:08.020Z,992.96
2019-03-03T03:05:07.998Z,992.92
2019-03-03T03:06:07.983Z,992.92
2019-03-03T03:07:07.957Z,992.94
2019-03-03T03:08:07.949Z,992.97
2019-03-03T03:09:07.920Z,992.98
2019-03-03T03:10:07.891Z,992.98
2019-03-03T03:11:07.875Z,992.93
2019-03-03T03:12:07.852Z,992.93
2019-03-03T03:13:07.942Z,992.89
2019-03-03T03:14:07.797Z,992.87
2019-03-03T03:15:07.785Z,992.92
2019-03-03T03:16:07.761Z,992.89
2019-03-03T03:17:07.744Z,992.89
2019-03-03T03:18:07.724Z,992.83
2019-03-03T03:19:07.696Z,992.78
2019-03-03T03:20:07.681Z,992.78
2019-03-03T03:21:07.652Z,992.71
2019-03-03T03:22:07.636Z,992.69
2019-03-03T03:23:07.611Z,992.67
2019-03-03T03:24:07.592Z,992.67
2019-03-03T03:25:07.569Z,992.66
2019-03-03T03:26:07.550Z,992.58
2019-03-03T03:27:07.527Z,992.56
2019-03-03T03:28:07.501Z,992.60
2019-03-03T03:29:07.488Z,992.63
2019-03-03T03:30:07.457Z,992.60
2019-03-03T03:31:07.444Z,992.56
2019-03-03T03:32:07.417Z,992.63
2019-03-03T03:33:07.393Z,992.61
2019-03-03T03:34:07.375Z,992.63
2019-03-03T03:35:07.351Z,992.60
2019-03-03T03:36:07.335Z,992.58
2019-03-03T03:37:07.311Z,992.54
2019-03-03T03:38:07.284Z,992.55
2019-03-03T03:39:07.261Z,992.54
2019-03-03T03:40:07.245Z,992.56
2019-03-03T03:41:07.219Z,992.51
2019-03-03T03:42:07.197Z,992.52
2019-03-03T03:43:07.175Z,992.53
2019-03-03T03:44:07.231Z,992.55
2019-03-03T03:45:07.153Z,992.48
2019-03-03T03:46:07.122Z,992.54
2019-03-03T03:47:07.089Z,992.45
2019-03-03T03:48:07.080Z,992.48
2019-03-03T03:49:07.073Z,992.48
2019-03-03T03:50:07.031Z,992.46
2019-03-03T03:51:07.004Z,992.52
2019-03-03T03:52:06.989Z,992.46
2019-03-03T03:53:06.960Z,992.48
2019-03-03T03:54:06.938Z,992.50
2019-03-03T03:55:06.915Z,992.46
2019-03-03T03:56:06.898Z,992.44
2019-03-03T03:57:06.873Z,992.43
2019-03-03T03:58:06.858Z,992.42
2019-03-03T03:59:06.835Z,992.48
2019-03-03T04:00:06.813Z,992.45
2019-03-03T04:01:06.792Z,992.44
2019-03-03T04:02:06.772Z,992.41
2019-03-03T04:03:06.783Z,992.42
2019-03-03T04:04:06.720Z,992.40
2019-03-03T04:05:06.710Z,992.36
2019-03-03T04:06:06.676Z,992.39
2019-03-03T04:07:06.658Z,992.38
2019-03-03T04:08:06.640Z,992.38
2019-03-03T04:09:06.613Z,992.39
2019-03-03T04:10:06.597Z,992.40
2019-03-03T04:11:06.568Z,992.41
2019-03-03T04:12:06.549Z,992.42
2019-03-03T04:13:06.526Z,992.46
2019-03-03T04:14:06.504Z,992.46
2019-03-03T04:15:06.487Z,992.45
2019-03-03T04:16:06.463Z,992.39
2019-03-03T04:17:06.444Z,992.46
2019-03-03T04:18:06.437Z,992.44
2019-03-03T04:19:06.396Z,992.44
2019-03-03T04:20:06.372Z,992.44
2019-03-03T04:21:06.357Z,992.47
2019-03-03T04:22:06.331Z,992.46
2019-03-03T04:23:06.316Z,992.44
2019-03-03T04:24:06.293Z,992.42
2019-03-03T04:25:06.270Z,992.40
2019-03-03T04:26:06.248Z,992.42
2019-03-03T04:27:06.222Z,992.39
2019-03-03T04:28:06.203Z,992.32
2019-03-03T04:29:06.178Z,992.37
2019-03-03T04:30:06.170Z,992.35
2019-03-03T04:31:06.133Z,992.36
2019-03-03T04:32:06.121Z,992.44
2019-03-03T04:33:06.098Z,992.44
2019-03-03T04:34:06.070Z,992.43
2019-03-03T04:35:06.048Z,992.46
2019-03-03T04:36:06.031Z,992.45
2019-03-03T04:37:06.008Z,992.48
2019-03-03T04:38:05.984Z,992.53
2019-03-03T04:39:05.961Z,992.48
2019-03-03T04:40:05.946Z,992.43
2019-03-03T04:41:05.923Z,992.39
2019-03-03T04:42:05.897Z,992.33
2019-03-03T04:43:05.875Z,992.35
2019-03-03T04:44:05.865Z,992.36
2019-03-03T04:45:05.833Z,992.33
2019-03-03T04:46:05.815Z,992.36
2019-03-03T04:47:05.793Z,992.35
2019-03-03T04:48:05.768Z,992.29
2019-03-03T04:49:05.746Z,992.30
2019-03-03T04:50:05.730Z,992.24
2019-03-03T04:51:05.713Z,992.23
2019-03-03T04:52:05.681Z,992.25
2019-03-03T04:53:05.659Z,992.20
2019-03-03T04:54:05.636Z,992.22
2019-03-03T04:55:05.614Z,992.23
2019-03-03T04:56:05.596Z,992.21
2019-03-03T04:57:05.574Z,992.20
2019-03-03T04:58:05.554Z,992.12
2019-03-03T04:59:05.529Z,992.12
2019-03-03T05:00:05.508Z,992.14
2019-03-03T05:01:05.494Z,992.13
2019-03-03T05:02:05.465Z,992.08
2019-03-03T05:03:05.446Z,992.10
2019-03-03T05:04:05.424Z,992.07
2019-03-03T05:05:05.401Z,992.03
2019-03-03T05:06:05.378Z,992.15
2019-03-03T05:07:05.360Z,992.19
2019-03-03T05:08:05.337Z,992.20
2019-03-03T05:09:05.314Z,992.16
2019-03-03T05:10:05.293Z,992.22
2019-03-03T05:11:05.275Z,992.20
2019-03-03T05:12:05.250Z,992.26
2019-03-03T05:13:05.228Z,992.30
2019-03-03T05:14:05.225Z,992.23
2019-03-03T05:15:05.192Z,992.26
2019-03-03T05:16:05.171Z,992.26
2019-03-03T05:17:05.146Z,992.33
2019-03-03T05:18:05.122Z,992.37
2019-03-03T05:19:05.098Z,992.35
2019-03-03T05:20:05.086Z,992.30
2019-03-03T05:21:05.063Z,992.24
2019-03-03T05:22:05.040Z,992.30
2019-03-03T05:23:05.012Z,992.24
2019-03-03T05:24:04.999Z,992.20
2019-03-03T05:25:04.970Z,992.18
2019-03-03T05:26:04.954Z,992.19
2019-03-03T05:27:04.926Z,992.20
2019-03-03T05:28:04.908Z,992.13
2019-03-03T05:29:04.884Z,992.03
2019-03-03T05:30:04.868Z,991.98
2019-03-03T05:31:04.843Z,991.95
2019-03-03T05:32:04.820Z,991.99
2019-03-03T05:33:04.798Z,992.02
2019-03-03T05:34:04.775Z,991.96
2019-03-03T05:35:04.758Z,991.88
2019-03-03T05:36:04.733Z,991.96
2019-03-03T05:37:04.710Z,991.89
2019-03-03T05:38:04.688Z,991.93
2019-03-03T05:39:04.669Z,991.93
2019-03-03T05:40:04.646Z,991.96
2019-03-03T05:41:04.631Z,991.86
2019-03-03T05:42:04.605Z,991.94
2019-03-03T05:43:04.582Z,991.81
2019-03-03T05:44:04.562Z,991.86
2019-03-03T05:45:04.543Z,991.91
2019-03-03T05:46:04.527Z,991.84
2019-03-03T05:47:04.495Z,991.83
2019-03-03T05:48:04.479Z,991.85
2019-03-03T05:49:04.454Z,991.84
2019-03-03T05:50:04.434Z,991.84
2019-03-03T05:51:04.406Z,991.77
2019-03-03T05:52:04.388Z,991.79
2019-03-03T05:53:04.366Z,991.77
2019-03-03T05:54:04.343Z,991.83
2019-03-03T05:55:04.324Z,991.76
2019-03-03T05:56:04.308Z,991.79
2019-03-03T05:57:04.286Z,991.77
2019-03-03T05:58:04.259Z,991.75
2019-03-03T05:59:04.251Z,991.77
2019-03-03T06:00:04.213Z,991.72
2019-03-03T06:01:04.203Z,991.72
2019-03-03T06:02:04.171Z,991.72
2019-03-03T06:03:04.152Z,991.75
2019-03-03T06:04:04.136Z,991.71
2019-03-03T06:05:04.171Z,991.69
2019-03-03T06:06:04.085Z,991.65
2019-03-03T06:07:04.066Z,991.61
2019-03-03T06:08:04.053Z,991.63
2019-03-03T06:09:04.021Z,991.63
2019-03-03T06:10:04.006Z,991.63
2019-03-03T06:11:03.981Z,991.68
2019-03-03T06:12:03.958Z,991.67
2019-03-03T06:13:03.941Z,991.62
2019-03-03T06:14:03.918Z,991.65
2019-03-03T06:15:03.893Z,991.63
2019-03-03T06:16:03.870Z,991.60
2019-03-03T06:17:03.854Z,991.65
2019-03-03T06:18:03.829Z,991.52
2019-03-03T06:19:03.812Z,991.48
2019-03-03T06:20:03.785Z,991.49
2019-03-03T06:21:03.771Z,991.46
2019-03-03T06:22:03.742Z,991.43
2019-03-03T06:23:03.721Z,991.46
2019-03-03T06:24:03.699Z,991.41
2019-03-03T06:25:03.695Z,991.40
2019-03-03T06:26:03.654Z,991.38
2019-03-03T06:27:03.637Z,991.37
2019-03-03T06:28:03.616Z,991.41
2019-03-03T06:29:03.593Z,991.43
2019-03-03T06:30:05.452Z,991.42
2019-03-03T06:31:03.568Z,991.37
2019-03-03T06:32:03.529Z,991.39
2019-03-03T06:33:03.510Z,991.37
2019-03-03T06:34:03.482Z,991.38
2019-03-03T06:35:03.462Z,991.41
2019-03-03T06:36:03.442Z,991.46
2019-03-03T06:37:03.531Z,991.42
2019-03-03T06:38:03.397Z,991.49
2019-03-03T06:39:03.389Z,991.43
2019-03-03T06:40:03.384Z,991.47
2019-03-03T06:41:03.343Z,991.44
2019-03-03T06:42:03.327Z,991.49
2019-03-03T06:43:03.298Z,991.45
2019-03-03T06:44:03.282Z,991.48
2019-03-03T06:45:03.253Z,991.46
2019-03-03T06:46:03.228Z,991.43
2019-03-03T06:47:03.202Z,991.49
2019-03-03T06:48:03.190Z,991.52
2019-03-03T06:49:03.167Z,991.51
2019-03-03T06:50:03.156Z,991.51
2019-03-03T06:51:03.133Z,991.48
2019-03-03T06:52:03.104Z,991.50
2019-03-03T06:53:03.079Z,991.51
2019-03-03T06:54:03.075Z,991.53
2019-03-03T06:55:03.037Z,991.51
2019-03-03T06:56:03.024Z,991.55
2019-03-03T06:57:02.998Z,991.56
2019-03-03T06:58:02.980Z,991.58
2019-03-03T06:59:02.949Z,991.67
2019-03-03T07:00:02.930Z,991.60
2019-03-03T07:01:02.931Z,991.61
2019-03-03T07:02:02.879Z,991.61
2019-03-03T07:03:02.876Z,991.53
2019-03-03T07:04:02.838Z,991.62
2019-03-03T07:05:02.819Z,991.63
2019-03-03T07:06:02.791Z,991.65
2019-03-03T07:07:02.774Z,991.65
2019-03-03T07:08:02.763Z,991.60
2019-03-03T07:09:02.734Z,991.64
2019-03-03T07:10:02.712Z,991.63
2019-03-03T07:11:02.688Z,991.57
2019-03-03T07:12:02.673Z,991.46
2019-03-03T07:13:02.644Z,991.46
2019-03-03T07:14:02.659Z,991.56
2019-03-03T07:15:02.603Z,991.49
2019-03-03T07:16:02.587Z,991.55
2019-03-03T07:17:02.558Z,991.44
2019-03-03T07:18:02.536Z,991.48
2019-03-03T07:19:02.529Z,991.48
2019-03-03T07:20:02.500Z,991.57
2019-03-03T07:21:02.496Z,991.50
2019-03-03T07:22:02.459Z,991.53
2019-03-03T07:23:02.440Z,991.55
2019-03-03T07:24:02.427Z,991.51
2019-03-03T07:25:02.388Z,991.50
2019-03-03T07:26:02.372Z,991.57
2019-03-03T07:27:02.353Z,991.60
2019-03-03T07:28:02.331Z,991.57
2019-03-03T07:29:02.305Z,991.63
2019-03-03T07:30:02.286Z,991.55
2019-03-03T07:31:02.266Z,991.52
2019-03-03T07:32:02.250Z,991.55
2019-03-03T07:33:02.218Z,991.60
2019-03-03T07:34:02.206Z,991.58
2019-03-03T07:35:02.183Z,991.64
2019-03-03T07:36:02.160Z,991.57
2019-03-03T07:37:02.154Z,991.64
2019-03-03T07:38:02.119Z,991.63
2019-03-03T07:39:02.100Z,991.61
2019-03-03T07:40:02.073Z,991.61
2019-03-03T07:41:02.057Z,991.64
2019-03-03T07:42:02.032Z,991.64
2019-03-03T07:43:02.010Z,991.70
2019-03-03T07:44:01.992Z,991.67
2019-03-03T07:45:01.973Z,991.64
2019-03-03T07:46:01.951Z,991.60
2019-03-03T07:47:01.931Z,991.61
2019-03-03T07:48:01.903Z,991.65
2019-03-03T07:49:01.885Z,991.66
2019-03-03T07:50:01.873Z,991.66
2019-03-03T07:51:01.849Z,991.69
2019-03-03T07:52:01.826Z,991.66
2019-03-03T07:53:01.797Z,991.66
2019-03-03T07:54:01.785Z,991.60
2019-03-03T07:55:01.763Z,991.67
2019-03-03T07:56:01.741Z,991.65
2019-03-03T07:57:01.723Z,991.63
2019-03-03T07:58:01.705Z,991.61
2019-03-03T07:59:01.689Z,991.57
2019-03-03T08:00:01.658Z,991.57
2019-03-03T08:01:01.644Z,991.57
2019-03-03T08:02:01.609Z,991.60
2019-03-03T08:03:01.586Z,991.66
2019-03-03T08:04:01.582Z,991.67
2019-03-03T08:05:01.549Z,991.67
2019-03-03T08:06:01.525Z,991.60
2019-03-03T08:07:01.503Z,991.59
2019-03-03T08:08:01.481Z,991.60
2019-03-03T08:09:01.470Z,991.69
2019-03-03T08:10:01.456Z,991.62
2019-03-03T08:11:01.447Z,991.56
2019-03-03T08:12:01.399Z,991.58
2019-03-03T08:13:08.975Z,991.55
2019-03-03T08:14:01.360Z,991.51
2019-03-03T08:15:01.363Z,991.55
2019-03-03T08:16:01.315Z,991.64
2019-03-03T08:17:01.296Z,991.54
2019-03-03T08:18:01.280Z,991.58
2019-03-03T08:19:01.264Z,991.50
2019-03-03T08:20:01.240Z,991.55
2019-03-03T08:21:01.216Z,991.53
2019-03-03T08:22:01.197Z,991.59
2019-03-03T08:23:01.169Z,991.52
2019-03-03T08:24:01.165Z,991.55
2019-03-03T08:25:01.134Z,991.49
2019-03-03T08:26:01.106Z,991.52
2019-03-03T08:27:01.092Z,991.55
2019-03-03T08:28:01.070Z,991.51
2019-03-03T08:29:01.044Z,991.52
2019-03-03T08:30:01.031Z,991.55
2019-03-03T08:31:01.009Z,991.54
2019-03-03T08:32:00.992Z,991.48
2019-03-03T08:33:00.977Z,991.52
2019-03-03T08:34:00.948Z,991.51
2019-03-03T08:35:00.931Z,991.51
2019-03-03T08:36:00.902Z,991.54
2019-03-03T08:37:00.886Z,991.50
2019-03-03T08:38:00.864Z,991.50
2019-03-03T08:39:00.845Z,991.62
2019-03-03T08:40:00.829Z,991.50
2019-03-03T08:41:00.797Z,991.50
2019-03-03T08:42:00.787Z,991.61
2019-03-03T08:43:00.762Z,991.62
2019-03-03T08:44:00.743Z,991.64
2019-03-03T08:45:00.726Z,991.67
2019-03-03T08:46:00.709Z,991.61
2019-03-03T08:47:00.684Z,991.70
2019-03-03T08:48:00.663Z,991.72
2019-03-03T08:49:00.638Z,991.70
2019-03-03T08:50:00.625Z,991.71
2019-03-03T08:51:00.595Z,991.69
2019-03-03T08:52:00.583Z,991.63
2019-03-03T08:53:00.566Z,991.60
2019-03-03T08:54:00.544Z,991.54
2019-03-03T08:55:00.525Z,991.58
2019-03-03T08:56:00.506Z,991.61
2019-03-03T08:57:00.484Z,991.58
2019-03-03T08:58:00.467Z,991.55
2019-03-03T08:59:00.478Z,991.57
2019-03-03T09:00:00.434Z,991.56
2019-03-03T09:01:00.400Z,991.61
2019-03-03T09:02:00.395Z,991.56
2019-03-03T09:03:00.370Z,991.60
2019-03-03T09:04:00.357Z,991.63
2019-03-03T09:05:00.344Z,991.65
2019-03-03T09:06:00.307Z,991.54
2019-03-03T09:07:00.295Z,991.63
2019-03-03T09:08:00.285Z,991.60
2019-03-03T09:09:00.255Z,991.64
2019-03-03T09:10:00.232Z,991.68
2019-03-03T09:11:00.213Z,991.63
2019-03-03T09:12:00.202Z,991.69
2019-03-03T09:13:00.188Z,991.69
2019-03-03T09:14:00.160Z,991.70
2019-03-03T09:15:00.285Z,991.74
2019-03-03T09:16:00.130Z,991.68
2019-03-03T09:17:00.098Z,991.67
2019-03-03T09:18:00.079Z,991.70
2019-03-03T09:19:00.063Z,991.67
2019-03-03T09:20:00.044Z,991.64
2019-03-03T09:21:00.025Z,991.59
2019-03-03T09:22:00.008Z,991.62
2019-03-03T09:22:59.986Z,991.65
2019-03-03T09:23:59.973Z,991.62
2019-03-03T09:24:59.957Z,991.59
2019-03-03T09:25:59.935Z,991.56
2019-03-03T09:26:59.908Z,991.56
2019-03-03T09:27:59.893Z,991.57
2019-03-03T09:28:59.902Z,991.55
2019-03-03T09:29:59.858Z,991.57
2019-03-03T09:30:59.842Z,991.58
2019-03-03T09:31:59.819Z,991.60
2019-03-03T09:32:59.799Z,991.56
2019-03-03T09:33:59.789Z,991.54
2019-03-03T09:34:59.761Z,991.57
2019-03-03T09:35:59.744Z,991.52
2019-03-03T09:36:59.723Z,991.50
2019-03-03T09:37:59.705Z,991.49
2019-03-03T09:38:59.690Z,991.52
2019-03-03T09:40:08.831Z,991.52
2019-03-03T09:40:59.652Z,991.48
2019-03-03T09:41:59.633Z,991.54
2019-03-03T09:42:59.614Z,991.49
2019-03-03T09:43:59.597Z,991.54
2019-03-03T09:44:59.577Z,991.52
2019-03-03T09:45:59.555Z,991.56
2019-03-03T09:46:59.535Z,991.57
2019-03-03T09:47:59.516Z,991.59
2019-03-03T09:48:59.500Z,991.58
2019-03-03T09:49:59.478Z,991.53
2019-03-03T09:50:59.463Z,991.58
2019-03-03T09:51:59.449Z,991.57
2019-03-03T09:52:59.423Z,991.55
2019-03-03T09:53:59.404Z,991.69
2019-03-03T09:54:59.388Z,991.59
2019-03-03T09:55:59.369Z,991.58
2019-03-03T09:56:59.347Z,991.62
2019-03-03T09:57:59.334Z,991.52
2019-03-03T09:58:59.319Z,991.61
2019-03-03T09:59:59.293Z,991.50
2019-03-03T10:00:59.305Z,991.46
2019-03-03T10:01:59.254Z,991.45
2019-03-03T10:02:59.235Z,991.45
2019-03-03T10:03:59.225Z,991.46
2019-03-03T10:04:59.200Z,991.49
2019-03-03T10:05:59.187Z,991.45
2019-03-03T10:06:59.166Z,991.52
2019-03-03T10:07:59.160Z,991.42
2019-03-03T10:08:59.124Z,991.42
2019-03-03T10:09:59.105Z,991.45
2019-03-03T10:10:59.088Z,991.38
2019-03-03T10:11:59.068Z,991.31
2019-03-03T10:12:59.052Z,991.37
2019-03-03T10:13:59.037Z,991.30
2019-03-03T10:14:59.018Z,991.42
2019-03-03T10:15:59.001Z,991.33
2019-03-03T10:16:58.980Z,991.32
2019-03-03T10:17:58.986Z,991.28
2019-03-03T10:19:06.942Z,991.37
2019-03-03T10:19:58.919Z,991.36
2019-03-03T10:20:58.906Z,991.31
2019-03-03T10:21:58.887Z,991.32
2019-03-03T10:22:58.865Z,991.38
2019-03-03T10:23:58.849Z,991.37
2019-03-03T10:24:58.833Z,991.29
2019-03-03T10:25:58.808Z,991.40
2019-03-03T10:26:58.800Z,991.44
2019-03-03T10:27:58.772Z,991.43
2019-03-03T10:28:58.758Z,991.40
2019-03-03T10:29:58.746Z,991.40
2019-03-03T10:30:58.725Z,991.35
2019-03-03T10:31:58.706Z,991.36
2019-03-03T10:32:58.684Z,991.34
2019-03-03T10:33:58.660Z,991.32
2019-03-03T10:34:58.648Z,991.50
2019-03-03T10:35:58.632Z,991.38
2019-03-03T10:36:58.613Z,991.37
2019-03-03T10:37:58.599Z,991.38
2019-03-03T10:38:58.580Z,991.29
2019-03-03T10:39:58.554Z,991.38
2019-03-03T10:40:58.535Z,991.35
2019-03-03T10:41:58.518Z,991.28
2019-03-03T10:42:58.503Z,991.37
2019-03-03T10:43:58.484Z,991.27
2019-03-03T10:44:58.476Z,991.36
2019-03-03T10:45:58.449Z,991.44
2019-03-03T10:46:58.436Z,991.38
2019-03-03T10:47:58.420Z,991.42
2019-03-03T10:48:58.404Z,991.24
2019-03-03T10:49:58.379Z,991.33
2019-03-03T10:50:58.363Z,991.39
2019-03-03T10:51:58.353Z,991.39
2019-03-03T10:52:58.335Z,991.39
2019-03-03T10:53:58.315Z,991.45
2019-03-03T10:54:58.296Z,991.43
2019-03-03T10:55:58.281Z,991.43
2019-03-03T10:56:58.267Z,991.43
2019-03-03T10:57:58.241Z,991.47
2019-03-03T10:58:58.229Z,991.47
2019-03-03T10:59:58.209Z,991.52
2019-03-03T11:00:58.190Z,991.48
2019-03-03T11:01:58.174Z,991.48
2019-03-03T11:02:58.164Z,991.48
2019-03-03T11:03:58.138Z,991.50
2019-03-03T11:04:58.122Z,991.54
2019-03-03T11:05:58.103Z,991.54
2019-03-03T11:06:58.087Z,991.53
2019-03-03T11:07:58.068Z,991.40
2019-03-03T11:08:58.062Z,991.38
2019-03-03T11:09:58.043Z,991.37
2019-03-03T11:10:58.020Z,991.40
2019-03-03T11:11:58.004Z,991.29
2019-03-03T11:12:57.980Z,991.34
2019-03-03T11:13:57.975Z,991.36
2019-03-03T11:14:57.952Z,991.35
2019-03-03T11:15:57.932Z,991.38
2019-03-03T11:16:57.909Z,991.36
2019-03-03T11:17:57.891Z,991.43
2019-03-03T11:18:57.872Z,991.34
2019-03-03T11:19:57.864Z,991.28
2019-03-03T11:20:57.836Z,991.37
2019-03-03T11:21:57.823Z,991.29
2019-03-03T11:22:57.803Z,991.27
2019-03-03T11:23:57.788Z,991.30
2019-03-03T11:24:57.763Z,991.29
2019-03-03T11:25:57.746Z,991.26
2019-03-03T11:26:57.734Z,991.28
2019-03-03T11:27:57.708Z,991.26
2019-03-03T11:28:57.689Z,991.28
2019-03-03T11:29:57.677Z,991.30
2019-03-03T11:30:57.654Z,991.18
2019-03-03T11:31:57.635Z,991.24
2019-03-03T11:32:57.616Z,991.17
2019-03-03T11:33:57.603Z,991.16
2019-03-03T11:34:57.587Z,991.20
2019-03-03T11:35:57.561Z,991.19
2019-03-03T11:36:57.542Z,991.16
2019-03-03T11:37:57.523Z,991.15
2019-03-03T11:38:57.507Z,991.22
2019-03-03T11:39:57.494Z,991.13
2019-03-03T11:40:57.476Z,991.16
2019-03-03T11:41:57.455Z,991.09
2019-03-03T11:42:57.434Z,991.17
2019-03-03T11:43:57.424Z,991.10
2019-03-03T11:44:57.398Z,991.05
2019-03-03T11:45:57.378Z,991.09
2019-03-03T11:46:57.365Z,991.09
2019-03-03T11:48:04.164Z,991.10
2019-03-03T11:48:57.327Z,990.97
2019-03-03T11:49:57.305Z,990.99
2019-03-03T11:50:57.292Z,991.05
2019-03-03T11:51:57.269Z,991.05
2019-03-03T11:52:57.257Z,991.04
2019-03-03T11:53:57.237Z,990.93
2019-03-03T11:54:57.218Z,990.98
2019-03-03T11:55:57.200Z,990.91
2019-03-03T11:56:57.187Z,990.96
2019-03-03T11:57:57.164Z,991.00
2019-03-03T11:58:57.153Z,990.88
2019-03-03T11:59:57.125Z,990.93
2019-03-03T12:00:57.111Z,990.86
2019-03-03T12:01:57.095Z,990.88
2019-03-03T12:02:57.075Z,990.84
2019-03-03T12:03:57.053Z,990.84
2019-03-03T12:04:57.034Z,990.76
2019-03-03T12:05:57.018Z,990.84
2019-03-03T12:06:57.023Z,990.81
2019-03-03T12:07:57.269Z,990.82
2019-03-03T12:08:56.970Z,990.77
2019-03-03T12:09:56.952Z,990.82
2019-03-03T12:10:56.935Z,990.88
2019-03-03T12:11:56.910Z,990.83
2019-03-03T12:12:56.894Z,990.85
2019-03-03T12:13:56.889Z,990.72
2019-03-03T12:14:56.858Z,990.79
2019-03-03T12:15:56.843Z,990.70
2019-03-03T12:16:56.852Z,990.63
2019-03-03T12:17:56.808Z,990.77
2019-03-03T12:18:56.794Z,990.67
2019-03-03T12:19:56.778Z,990.59
2019-03-03T12:20:56.763Z,990.52
2019-03-03T12:21:56.737Z,990.47
2019-03-03T12:22:56.724Z,990.54
2019-03-03T12:23:56.708Z,990.51
2019-03-03T12:24:56.688Z,990.53
2019-03-03T12:25:56.669Z,990.46
2019-03-03T12:26:56.658Z,990.54
2019-03-03T12:27:56.638Z,990.43